sensor_id;sensor_type;location;lat;lon;timestamp;temperature;humidity
14283;DHT22;7225;59.282;18.344;2022-08-18T00:02:08;20.30;99.90
14283;DHT22;7225;59.282;18.344;2022-08-18T00:04:40;20.30;99.90
14283;DHT22;7225;59.282;18.344;2022-08-18T00:07:29;20.20;99.90
14283;DHT22;7225;59.282;18.344;2022-08-18T00:10:03;20.10;99.90
14283;DHT22;7225;59.282;18.344;2022-08-18T00:12:38;20.20;99.90
14283;DHT22;7225;59.282;18.344;2022-08-18T00:15:12;20.10;99.90
14283;DHT22;7225;59.282;18.344;2022-08-18T00:17:41;20.20;99.90
14283;DHT22;7225;59.282;18.344;2022-08-18T00:20:17;20.10;99.90
14283;DHT22;7225;59.282;18.344;2022-08-18T00:22:46;20.10;99.90
14283;DHT22;7225;59.282;18.344;2022-08-18T00:25:15;20.20;99.90
14283;DHT22;7225;59.282;18.344;2022-08-18T00:27:44;20.20;99.90
14283;DHT22;7225;59.282;18.344;2022-08-18T00:30:14;20.10;99.90
14283;DHT22;7225;59.282;18.344;2022-08-18T00:32:48;20.00;99.90
14283;DHT22;7225;59.282;18.344;2022-08-18T00:35:21;20.00;99.90
14283;DHT22;7225;59.282;18.344;2022-08-18T00:37:58;19.90;99.90
14283;DHT22;7225;59.282;18.344;2022-08-18T00:40:36;19.90;99.90
14283;DHT22;7225;59.282;18.344;2022-08-18T00:43:10;19.90;99.90
14283;DHT22;7225;59.282;18.344;2022-08-18T00:45:41;19.80;99.90
14283;DHT22;7225;59.282;18.344;2022-08-18T00:48:12;19.80;99.90
14283;DHT22;7225;59.282;18.344;2022-08-18T00:50:45;19.80;99.90
14283;DHT22;7225;59.282;18.344;2022-08-18T00:53:25;19.80;99.90
14283;DHT22;7225;59.282;18.344;2022-08-18T00:55:55;19.70;99.90
14283;DHT22;7225;59.282;18.344;2022-08-18T00:58:28;19.70;99.90
14283;DHT22;7225;59.282;18.344;2022-08-18T01:01:05;19.70;99.90
14283;DHT22;7225;59.282;18.344;2022-08-18T01:03:36;19.70;99.90
14283;DHT22;7225;59.282;18.344;2022-08-18T01:08:49;19.70;99.90
14283;DHT22;7225;59.282;18.344;2022-08-18T01:11:18;19.70;99.90
14283;DHT22;7225;59.282;18.344;2022-08-18T01:13:46;19.70;99.90
14283;DHT22;7225;59.282;18.344;2022-08-18T01:16:15;19.60;99.90
14283;DHT22;7225;59.282;18.344;2022-08-18T01:19:02;19.50;99.90
14283;DHT22;7225;59.282;18.344;2022-08-18T01:21:54;19.50;99.90
14283;DHT22;7225;59.282;18.344;2022-08-18T01:24:30;19.50;99.90
14283;DHT22;7225;59.282;18.344;2022-08-18T01:27:19;19.50;99.90
14283;DHT22;7225;59.282;18.344;2022-08-18T01:29:48;19.50;99.90
14283;DHT22;7225;59.282;18.344;2022-08-18T01:32:19;19.60;99.90
14283;DHT22;7225;59.282;18.344;2022-08-18T01:34:50;19.50;99.90
14283;DHT22;7225;59.282;18.344;2022-08-18T01:37:23;19.50;99.90
14283;DHT22;7225;59.282;18.344;2022-08-18T01:39:53;19.40;99.90
14283;DHT22;7225;59.282;18.344;2022-08-18T01:42:43;19.40;99.90
14283;DHT22;7225;59.282;18.344;2022-08-18T01:45:15;19.40;99.90
14283;DHT22;7225;59.282;18.344;2022-08-18T01:47:44;19.40;99.90
14283;DHT22;7225;59.282;18.344;2022-08-18T01:50:25;19.40;99.90
14283;DHT22;7225;59.282;18.344;2022-08-18T01:52:53;19.40;99.90
14283;DHT22;7225;59.282;18.344;2022-08-18T01:55:22;19.40;99.90
14283;DHT22;7225;59.282;18.344;2022-08-18T01:57:50;19.40;99.90
14283;DHT22;7225;59.282;18.344;2022-08-18T02:00:18;19.40;99.90
14283;DHT22;7225;59.282;18.344;2022-08-18T02:02:46;19.40;99.90
14283;DHT22;7225;59.282;18.344;2022-08-18T02:05:38;19.30;99.90
14283;DHT22;7225;59.282;18.344;2022-08-18T02:08:10;19.30;99.90
14283;DHT22;7225;59.282;18.344;2022-08-18T02:10:39;19.30;99.90
14283;DHT22;7225;59.282;18.344;2022-08-18T02:13:07;19.30;99.90
14283;DHT22;7225;59.282;18.344;2022-08-18T02:15:37;19.30;99.90
14283;DHT22;7225;59.282;18.344;2022-08-18T02:18:26;19.30;99.90
14283;DHT22;7225;59.282;18.344;2022-08-18T02:21:17;19.30;99.90
14283;DHT22;7225;59.282;18.344;2022-08-18T02:23:46;19.20;99.90
14283;DHT22;7225;59.282;18.344;2022-08-18T02:26:22;19.20;99.90
14283;DHT22;7225;59.282;18.344;2022-08-18T02:28:50;19.20;99.90
14283;DHT22;7225;59.282;18.344;2022-08-18T02:31:21;19.10;99.90
14283;DHT22;7225;59.282;18.344;2022-08-18T02:33:51;19.10;99.90
14283;DHT22;7225;59.282;18.344;2022-08-18T02:36:20;19.10;99.90
14283;DHT22;7225;59.282;18.344;2022-08-18T02:38:51;19.00;99.90
14283;DHT22;7225;59.282;18.344;2022-08-18T02:41:27;19.00;99.90
14283;DHT22;7225;59.282;18.344;2022-08-18T02:43:57;19.00;99.90
14283;DHT22;7225;59.282;18.344;2022-08-18T02:46:27;19.00;99.90
14283;DHT22;7225;59.282;18.344;2022-08-18T02:48:59;18.90;99.90
14283;DHT22;7225;59.282;18.344;2022-08-18T02:51:29;18.90;99.90
14283;DHT22;7225;59.282;18.344;2022-08-18T02:53:57;18.90;99.90
14283;DHT22;7225;59.282;18.344;2022-08-18T02:56:28;18.90;99.90
14283;DHT22;7225;59.282;18.344;2022-08-18T02:59:15;18.90;99.90
14283;DHT22;7225;59.282;18.344;2022-08-18T03:01:47;18.80;99.90
14283;DHT22;7225;59.282;18.344;2022-08-18T03:04:24;18.80;99.90
14283;DHT22;7225;59.282;18.344;2022-08-18T03:07:00;18.80;99.90
14283;DHT22;7225;59.282;18.344;2022-08-18T03:09:29;18.80;99.90
14283;DHT22;7225;59.282;18.344;2022-08-18T03:11:57;18.80;99.90
14283;DHT22;7225;59.282;18.344;2022-08-18T03:14:24;18.70;99.90
14283;DHT22;7225;59.282;18.344;2022-08-18T03:16:53;18.80;99.90
14283;DHT22;7225;59.282;18.344;2022-08-18T03:19:27;18.80;99.90
14283;DHT22;7225;59.282;18.344;2022-08-18T03:21:57;18.80;99.90
14283;DHT22;7225;59.282;18.344;2022-08-18T03:24:31;18.80;99.90
14283;DHT22;7225;59.282;18.344;2022-08-18T03:27:02;18.80;99.90
14283;DHT22;7225;59.282;18.344;2022-08-18T03:29:30;18.80;99.90
14283;DHT22;7225;59.282;18.344;2022-08-18T03:32:04;18.80;99.90
14283;DHT22;7225;59.282;18.344;2022-08-18T03:34:34;18.80;99.90
14283;DHT22;7225;59.282;18.344;2022-08-18T03:37:03;18.80;99.90
14283;DHT22;7225;59.282;18.344;2022-08-18T03:39:31;18.90;99.90
14283;DHT22;7225;59.282;18.344;2022-08-18T03:42:01;18.90;99.90
14283;DHT22;7225;59.282;18.344;2022-08-18T03:44:32;18.80;99.90
14283;DHT22;7225;59.282;18.344;2022-08-18T03:47:01;18.80;99.90
14283;DHT22;7225;59.282;18.344;2022-08-18T03:49:31;18.80;99.90
14283;DHT22;7225;59.282;18.344;2022-08-18T03:52:00;18.80;99.90
14283;DHT22;7225;59.282;18.344;2022-08-18T03:54:29;18.80;99.90
14283;DHT22;7225;59.282;18.344;2022-08-18T03:57:01;18.80;99.90
14283;DHT22;7225;59.282;18.344;2022-08-18T03:59:29;18.80;99.90
14283;DHT22;7225;59.282;18.344;2022-08-18T04:01:58;18.80;99.90
14283;DHT22;7225;59.282;18.344;2022-08-18T04:04:27;18.90;99.90
14283;DHT22;7225;59.282;18.344;2022-08-18T04:06:58;18.80;99.90
14283;DHT22;7225;59.282;18.344;2022-08-18T04:09:28;18.80;99.90
14283;DHT22;7225;59.282;18.344;2022-08-18T04:11:57;18.80;99.90
14283;DHT22;7225;59.282;18.344;2022-08-18T04:14:26;18.80;99.90
14283;DHT22;7225;59.282;18.344;2022-08-18T04:16:58;18.80;99.90
14283;DHT22;7225;59.282;18.344;2022-08-18T04:19:26;18.80;99.90
14283;DHT22;7225;59.282;18.344;2022-08-18T04:21:56;18.90;99.90
14283;DHT22;7225;59.282;18.344;2022-08-18T04:24:26;18.80;99.90
14283;DHT22;7225;59.282;18.344;2022-08-18T04:27:00;18.90;99.90
14283;DHT22;7225;59.282;18.344;2022-08-18T04:29:29;18.90;99.90
14283;DHT22;7225;59.282;18.344;2022-08-18T04:32:00;18.90;99.90
14283;DHT22;7225;59.282;18.344;2022-08-18T04:34:31;19.00;99.90
14283;DHT22;7225;59.282;18.344;2022-08-18T04:37:01;19.00;99.90
14283;DHT22;7225;59.282;18.344;2022-08-18T04:39:29;19.00;99.90
14283;DHT22;7225;59.282;18.344;2022-08-18T04:41:57;19.10;99.90
14283;DHT22;7225;59.282;18.344;2022-08-18T04:44:27;19.10;99.90
14283;DHT22;7225;59.282;18.344;2022-08-18T04:46:56;19.20;99.90
14283;DHT22;7225;59.282;18.344;2022-08-18T04:49:25;19.20;99.90
14283;DHT22;7225;59.282;18.344;2022-08-18T04:51:54;19.20;99.90
14283;DHT22;7225;59.282;18.344;2022-08-18T04:55:02;19.30;99.90
14283;DHT22;7225;59.282;18.344;2022-08-18T04:57:31;19.40;99.90
14283;DHT22;7225;59.282;18.344;2022-08-18T05:00:04;19.40;99.90
14283;DHT22;7225;59.282;18.344;2022-08-18T05:02:33;19.50;99.90
14283;DHT22;7225;59.282;18.344;2022-08-18T05:05:02;19.50;99.90
14283;DHT22;7225;59.282;18.344;2022-08-18T05:07:31;19.60;99.90
14283;DHT22;7225;59.282;18.344;2022-08-18T05:10:00;19.70;99.90
14283;DHT22;7225;59.282;18.344;2022-08-18T05:12:29;19.70;99.90
14283;DHT22;7225;59.282;18.344;2022-08-18T05:14:57;19.80;99.90
14283;DHT22;7225;59.282;18.344;2022-08-18T05:17:25;19.80;99.90
14283;DHT22;7225;59.282;18.344;2022-08-18T05:19:58;19.90;99.90
14283;DHT22;7225;59.282;18.344;2022-08-18T05:22:29;20.00;99.90
14283;DHT22;7225;59.282;18.344;2022-08-18T05:25:04;20.00;99.90
14283;DHT22;7225;59.282;18.344;2022-08-18T05:27:35;20.10;99.90
14283;DHT22;7225;59.282;18.344;2022-08-18T05:30:06;20.20;99.90
14283;DHT22;7225;59.282;18.344;2022-08-18T05:32:38;20.30;99.90
14283;DHT22;7225;59.282;18.344;2022-08-18T05:35:46;20.40;99.90
14283;DHT22;7225;59.282;18.344;2022-08-18T05:38:37;20.50;99.90
14283;DHT22;7225;59.282;18.344;2022-08-18T05:41:18;20.50;99.90
14283;DHT22;7225;59.282;18.344;2022-08-18T05:43:47;20.60;99.90
14283;DHT22;7225;59.282;18.344;2022-08-18T05:46:23;20.70;99.90
14283;DHT22;7225;59.282;18.344;2022-08-18T05:48:52;20.70;99.90
14283;DHT22;7225;59.282;18.344;2022-08-18T05:51:34;20.80;99.90
14283;DHT22;7225;59.282;18.344;2022-08-18T05:54:04;20.80;99.90
14283;DHT22;7225;59.282;18.344;2022-08-18T05:56:51;20.90;99.90
14283;DHT22;7225;59.282;18.344;2022-08-18T05:59:26;20.90;99.90
14283;DHT22;7225;59.282;18.344;2022-08-18T06:02:00;21.00;99.90
14283;DHT22;7225;59.282;18.344;2022-08-18T06:04:37;21.00;99.90
14283;DHT22;7225;59.282;18.344;2022-08-18T06:07:10;21.10;99.90
14283;DHT22;7225;59.282;18.344;2022-08-18T06:09:49;21.20;99.90
14283;DHT22;7225;59.282;18.344;2022-08-18T06:15:09;21.20;99.90
14283;DHT22;7225;59.282;18.344;2022-08-18T06:26:12;21.40;99.90
14283;DHT22;7225;59.282;18.344;2022-08-18T06:34:44;21.50;99.90
14283;DHT22;7225;59.282;18.344;2022-08-18T06:37:27;21.50;99.90
14283;DHT22;7225;59.282;18.344;2022-08-18T06:39:57;21.60;99.90
14283;DHT22;7225;59.282;18.344;2022-08-18T06:42:26;21.70;99.90
14283;DHT22;7225;59.282;18.344;2022-08-18T06:45:02;21.70;99.90
14283;DHT22;7225;59.282;18.344;2022-08-18T06:50:27;21.90;99.90
14283;DHT22;7225;59.282;18.344;2022-08-18T06:53:00;22.00;99.90
14283;DHT22;7225;59.282;18.344;2022-08-18T06:55:35;22.10;99.90
14283;DHT22;7225;59.282;18.344;2022-08-18T07:06:07;22.70;99.90
14283;DHT22;7225;59.282;18.344;2022-08-18T07:11:30;23.00;99.90
14283;DHT22;7225;59.282;18.344;2022-08-18T07:14:19;23.00;99.90
14283;DHT22;7225;59.282;18.344;2022-08-18T07:17:05;23.00;99.90
14283;DHT22;7225;59.282;18.344;2022-08-18T07:19:34;23.10;99.90
14283;DHT22;7225;59.282;18.344;2022-08-18T07:22:14;23.20;99.90
14283;DHT22;7225;59.282;18.344;2022-08-18T07:24:49;23.30;99.90
14283;DHT22;7225;59.282;18.344;2022-08-18T07:27:47;23.40;99.90
14283;DHT22;7225;59.282;18.344;2022-08-18T07:32:57;23.60;99.90
14283;DHT22;7225;59.282;18.344;2022-08-18T07:35:37;23.60;99.90
14283;DHT22;7225;59.282;18.344;2022-08-18T07:38:14;23.50;99.90
14283;DHT22;7225;59.282;18.344;2022-08-18T07:41:10;23.60;99.90
14283;DHT22;7225;59.282;18.344;2022-08-18T07:43:51;23.60;99.90
14283;DHT22;7225;59.282;18.344;2022-08-18T07:47:03;23.60;99.90
14283;DHT22;7225;59.282;18.344;2022-08-18T07:49:34;23.60;99.90
14283;DHT22;7225;59.282;18.344;2022-08-18T07:52:11;23.60;99.90
14283;DHT22;7225;59.282;18.344;2022-08-18T08:00:47;23.80;99.90
14283;DHT22;7225;59.282;18.344;2022-08-18T08:03:51;23.90;99.90
14283;DHT22;7225;59.282;18.344;2022-08-18T08:06:44;24.00;99.90
14283;DHT22;7225;59.282;18.344;2022-08-18T08:09:45;24.10;99.90
14283;DHT22;7225;59.282;18.344;2022-08-18T08:12:51;24.40;99.90
14283;DHT22;7225;59.282;18.344;2022-08-18T08:16:00;24.50;99.90
14283;DHT22;7225;59.282;18.344;2022-08-18T08:21:31;24.90;99.90
14283;DHT22;7225;59.282;18.344;2022-08-18T08:24:29;25.00;99.90
14283;DHT22;7225;59.282;18.344;2022-08-18T08:27:10;25.10;99.90
14283;DHT22;7225;59.282;18.344;2022-08-18T08:29:59;25.10;99.90
14283;DHT22;7225;59.282;18.344;2022-08-18T08:32:33;25.30;99.90
14283;DHT22;7225;59.282;18.344;2022-08-18T08:35:12;25.40;99.90
14283;DHT22;7225;59.282;18.344;2022-08-18T08:38:11;25.40;99.90
14283;DHT22;7225;59.282;18.344;2022-08-18T08:41:02;25.60;99.90
14283;DHT22;7225;59.282;18.344;2022-08-18T08:43:39;25.70;99.90
14283;DHT22;7225;59.282;18.344;2022-08-18T08:46:09;25.70;99.90
14283;DHT22;7225;59.282;18.344;2022-08-18T08:48:43;25.80;99.90
14283;DHT22;7225;59.282;18.344;2022-08-18T08:51:26;25.90;99.90
14283;DHT22;7225;59.282;18.344;2022-08-18T08:56:34;25.90;99.90
14283;DHT22;7225;59.282;18.344;2022-08-18T08:59:07;25.90;99.90
14283;DHT22;7225;59.282;18.344;2022-08-18T09:18:47;27.20;99.90
14283;DHT22;7225;59.282;18.344;2022-08-18T09:21:53;27.30;99.90
14283;DHT22;7225;59.282;18.344;2022-08-18T09:24:26;27.50;99.90
14283;DHT22;7225;59.282;18.344;2022-08-18T09:27:37;27.40;99.90
14283;DHT22;7225;59.282;18.344;2022-08-18T09:38:54;27.50;99.90
14283;DHT22;7225;59.282;18.344;2022-08-18T09:41:52;27.70;99.90
14283;DHT22;7225;59.282;18.344;2022-08-18T09:52:59;28.10;99.90
14283;DHT22;7225;59.282;18.344;2022-08-18T09:55:53;28.40;99.90
14283;DHT22;7225;59.282;18.344;2022-08-18T09:58:48;28.70;99.90
14283;DHT22;7225;59.282;18.344;2022-08-18T10:01:48;28.90;99.90
14283;DHT22;7225;59.282;18.344;2022-08-18T10:04:33;28.80;99.90
14283;DHT22;7225;59.282;18.344;2022-08-18T10:15:12;28.80;99.90
14283;DHT22;7225;59.282;18.344;2022-08-18T10:18:37;29.10;99.90
14283;DHT22;7225;59.282;18.344;2022-08-18T10:21:15;29.10;99.90
14283;DHT22;7225;59.282;18.344;2022-08-18T10:23:58;29.00;99.90
14283;DHT22;7225;59.282;18.344;2022-08-18T10:37:20;28.60;99.90
14283;DHT22;7225;59.282;18.344;2022-08-18T10:39:56;28.50;99.90
14283;DHT22;7225;59.282;18.344;2022-08-18T10:45:31;28.20;99.90
14283;DHT22;7225;59.282;18.344;2022-08-18T10:48:07;27.90;99.90
14283;DHT22;7225;59.282;18.344;2022-08-18T10:51:19;27.60;99.90
14283;DHT22;7225;59.282;18.344;2022-08-18T10:56:54;26.80;99.90
14283;DHT22;7225;59.282;18.344;2022-08-18T11:05:10;27.10;99.90
14283;DHT22;7225;59.282;18.344;2022-08-18T11:07:39;27.30;99.90
14283;DHT22;7225;59.282;18.344;2022-08-18T11:10:17;27.60;99.90
14283;DHT22;7225;59.282;18.344;2022-08-18T11:13:21;27.80;99.90
14283;DHT22;7225;59.282;18.344;2022-08-18T11:16:06;27.90;99.90
14283;DHT22;7225;59.282;18.344;2022-08-18T11:18:50;28.00;99.90
14283;DHT22;7225;59.282;18.344;2022-08-18T11:29:39;28.40;99.90
14283;DHT22;7225;59.282;18.344;2022-08-18T11:32:23;28.60;99.90
14283;DHT22;7225;59.282;18.344;2022-08-18T11:37:52;28.70;99.90
14283;DHT22;7225;59.282;18.344;2022-08-18T11:40:23;28.90;99.90
14283;DHT22;7225;59.282;18.344;2022-08-18T11:43:17;28.90;99.90
14283;DHT22;7225;59.282;18.344;2022-08-18T11:45:49;29.20;99.90
14283;DHT22;7225;59.282;18.344;2022-08-18T11:51:23;29.50;99.90
14283;DHT22;7225;59.282;18.344;2022-08-18T11:54:00;29.60;99.90
14283;DHT22;7225;59.282;18.344;2022-08-18T11:56:31;29.70;99.90
14283;DHT22;7225;59.282;18.344;2022-08-18T12:02:17;29.90;99.90
14283;DHT22;7225;59.282;18.344;2022-08-18T12:04:53;30.10;99.90
14283;DHT22;7225;59.282;18.344;2022-08-18T12:07:30;30.20;99.90
14283;DHT22;7225;59.282;18.344;2022-08-18T12:10:20;30.10;99.90
14283;DHT22;7225;59.282;18.344;2022-08-18T12:12:56;30.20;99.90
14283;DHT22;7225;59.282;18.344;2022-08-18T12:15:47;30.20;99.90
14283;DHT22;7225;59.282;18.344;2022-08-18T12:18:34;30.20;99.90
14283;DHT22;7225;59.282;18.344;2022-08-18T12:21:03;29.60;99.90
14283;DHT22;7225;59.282;18.344;2022-08-18T12:23:35;29.30;99.90
14283;DHT22;7225;59.282;18.344;2022-08-18T12:26:18;29.40;99.90
14283;DHT22;7225;59.282;18.344;2022-08-18T12:29:06;29.50;99.90
14283;DHT22;7225;59.282;18.344;2022-08-18T12:31:39;29.30;99.90
14283;DHT22;7225;59.282;18.344;2022-08-18T12:34:28;28.80;99.90
14283;DHT22;7225;59.282;18.344;2022-08-18T12:36:57;28.20;99.90
14283;DHT22;7225;59.282;18.344;2022-08-18T12:39:29;28.10;99.90
14283;DHT22;7225;59.282;18.344;2022-08-18T12:41:58;28.30;99.90
14283;DHT22;7225;59.282;18.344;2022-08-18T12:44:28;28.60;99.90
14283;DHT22;7225;59.282;18.344;2022-08-18T12:46:57;28.80;99.90
14283;DHT22;7225;59.282;18.344;2022-08-18T12:49:44;29.00;99.90
14283;DHT22;7225;59.282;18.344;2022-08-18T12:52:19;28.60;99.90
14283;DHT22;7225;59.282;18.344;2022-08-18T12:54:52;28.30;99.90
14283;DHT22;7225;59.282;18.344;2022-08-18T12:57:26;27.90;99.90
14283;DHT22;7225;59.282;18.344;2022-08-18T13:00:14;27.80;99.90
14283;DHT22;7225;59.282;18.344;2022-08-18T13:02:45;27.90;99.90
14283;DHT22;7225;59.282;18.344;2022-08-18T13:05:15;27.90;99.90
14283;DHT22;7225;59.282;18.344;2022-08-18T13:07:43;28.00;99.90
14283;DHT22;7225;59.282;18.344;2022-08-18T13:10:12;28.00;99.90
14283;DHT22;7225;59.282;18.344;2022-08-18T13:13:00;27.90;99.90
14283;DHT22;7225;59.282;18.344;2022-08-18T13:15:29;27.90;99.90
14283;DHT22;7225;59.282;18.344;2022-08-18T13:17:56;27.90;99.90
14283;DHT22;7225;59.282;18.344;2022-08-18T13:20:23;28.00;99.90
14283;DHT22;7225;59.282;18.344;2022-08-18T13:22:53;28.00;99.90
14283;DHT22;7225;59.282;18.344;2022-08-18T13:25:23;27.90;99.90
14283;DHT22;7225;59.282;18.344;2022-08-18T13:28:00;27.90;99.90
14283;DHT22;7225;59.282;18.344;2022-08-18T13:30:28;27.90;99.90
14283;DHT22;7225;59.282;18.344;2022-08-18T13:33:00;27.90;99.90
14283;DHT22;7225;59.282;18.344;2022-08-18T13:35:33;27.80;99.90
14283;DHT22;7225;59.282;18.344;2022-08-18T13:38:04;27.70;99.90
14283;DHT22;7225;59.282;18.344;2022-08-18T13:40:46;27.60;99.90
14283;DHT22;7225;59.282;18.344;2022-08-18T13:43:17;27.60;99.90
14283;DHT22;7225;59.282;18.344;2022-08-18T13:45:44;27.40;99.90
14283;DHT22;7225;59.282;18.344;2022-08-18T13:48:23;27.30;99.90
14283;DHT22;7225;59.282;18.344;2022-08-18T13:50:54;27.30;99.90
14283;DHT22;7225;59.282;18.344;2022-08-18T13:53:25;27.20;99.90
14283;DHT22;7225;59.282;18.344;2022-08-18T13:55:54;27.10;99.90
14283;DHT22;7225;59.282;18.344;2022-08-18T13:58:26;27.10;99.90
14283;DHT22;7225;59.282;18.344;2022-08-18T14:01:01;27.10;99.90
14283;DHT22;7225;59.282;18.344;2022-08-18T14:03:49;27.10;99.90
14283;DHT22;7225;59.282;18.344;2022-08-18T14:06:17;27.00;99.90
14283;DHT22;7225;59.282;18.344;2022-08-18T14:08:52;26.90;99.90
14283;DHT22;7225;59.282;18.344;2022-08-18T14:11:28;26.70;99.90
14283;DHT22;7225;59.282;18.344;2022-08-18T14:14:01;26.60;99.90
14283;DHT22;7225;59.282;18.344;2022-08-18T14:16:30;26.50;99.90
14283;DHT22;7225;59.282;18.344;2022-08-18T14:18:58;26.50;99.90
14283;DHT22;7225;59.282;18.344;2022-08-18T14:21:46;26.30;99.90
14283;DHT22;7225;59.282;18.344;2022-08-18T14:24:41;26.30;99.90
14283;DHT22;7225;59.282;18.344;2022-08-18T14:27:32;26.20;99.90
14283;DHT22;7225;59.282;18.344;2022-08-18T14:30:06;26.20;99.90
14283;DHT22;7225;59.282;18.344;2022-08-18T14:32:34;26.10;99.90
14283;DHT22;7225;59.282;18.344;2022-08-18T14:35:09;25.90;99.90
14283;DHT22;7225;59.282;18.344;2022-08-18T14:37:58;25.90;99.90
14283;DHT22;7225;59.282;18.344;2022-08-18T14:40:30;25.90;99.90
14283;DHT22;7225;59.282;18.344;2022-08-18T14:43:00;25.90;99.90
14283;DHT22;7225;59.282;18.344;2022-08-18T14:45:32;25.70;99.90
14283;DHT22;7225;59.282;18.344;2022-08-18T14:48:03;25.60;99.90
14283;DHT22;7225;59.282;18.344;2022-08-18T14:50:38;25.60;99.90
14283;DHT22;7225;59.282;18.344;2022-08-18T14:53:16;25.50;99.90
14283;DHT22;7225;59.282;18.344;2022-08-18T14:55:48;25.40;99.90
14283;DHT22;7225;59.282;18.344;2022-08-18T14:58:24;25.20;99.90
14283;DHT22;7225;59.282;18.344;2022-08-18T15:01:00;25.20;99.90
14283;DHT22;7225;59.282;18.344;2022-08-18T15:03:36;25.10;99.90
14283;DHT22;7225;59.282;18.344;2022-08-18T15:06:06;25.00;99.90
14283;DHT22;7225;59.282;18.344;2022-08-18T15:08:36;25.00;99.90
14283;DHT22;7225;59.282;18.344;2022-08-18T15:11:10;25.00;99.90
14283;DHT22;7225;59.282;18.344;2022-08-18T15:13:43;24.90;99.90
14283;DHT22;7225;59.282;18.344;2022-08-18T15:16:14;24.90;99.90
14283;DHT22;7225;59.282;18.344;2022-08-18T15:18:42;24.90;99.90
14283;DHT22;7225;59.282;18.344;2022-08-18T15:21:10;24.90;99.90
14283;DHT22;7225;59.282;18.344;2022-08-18T15:24:07;24.80;99.90
14283;DHT22;7225;59.282;18.344;2022-08-18T15:26:57;24.80;99.90
14283;DHT22;7225;59.282;18.344;2022-08-18T15:29:32;24.70;99.90
14283;DHT22;7225;59.282;18.344;2022-08-18T15:32:00;24.70;99.90
14283;DHT22;7225;59.282;18.344;2022-08-18T15:34:36;24.60;99.90
14283;DHT22;7225;59.282;18.344;2022-08-18T15:37:19;24.70;99.90
14283;DHT22;7225;59.282;18.344;2022-08-18T15:40:00;24.70;99.90
14283;DHT22;7225;59.282;18.344;2022-08-18T15:42:30;24.70;99.90
14283;DHT22;7225;59.282;18.344;2022-08-18T15:45:01;24.70;99.90
14283;DHT22;7225;59.282;18.344;2022-08-18T15:47:41;24.80;99.90
14283;DHT22;7225;59.282;18.344;2022-08-18T15:50:14;24.80;99.90
14283;DHT22;7225;59.282;18.344;2022-08-18T15:52:57;24.70;99.90
14283;DHT22;7225;59.282;18.344;2022-08-18T15:55:28;24.60;99.90
14283;DHT22;7225;59.282;18.344;2022-08-18T15:58:04;24.50;99.90
14283;DHT22;7225;59.282;18.344;2022-08-18T16:00:42;24.50;99.90
14283;DHT22;7225;59.282;18.344;2022-08-18T16:03:12;24.50;99.90
14283;DHT22;7225;59.282;18.344;2022-08-18T16:05:49;24.40;99.90
14283;DHT22;7225;59.282;18.344;2022-08-18T16:08:22;24.30;99.90
14283;DHT22;7225;59.282;18.344;2022-08-18T16:10:51;24.20;99.90
14283;DHT22;7225;59.282;18.344;2022-08-18T16:13:20;24.10;99.90
14283;DHT22;7225;59.282;18.344;2022-08-18T16:15:48;24.10;99.90
14283;DHT22;7225;59.282;18.344;2022-08-18T16:18:18;23.90;99.90
14283;DHT22;7225;59.282;18.344;2022-08-18T16:20:47;23.80;99.90
14283;DHT22;7225;59.282;18.344;2022-08-18T16:23:23;23.70;99.90
14283;DHT22;7225;59.282;18.344;2022-08-18T16:25:51;23.70;99.90
14283;DHT22;7225;59.282;18.344;2022-08-18T16:28:19;23.60;99.90
14283;DHT22;7225;59.282;18.344;2022-08-18T16:31:01;23.50;99.90
14283;DHT22;7225;59.282;18.344;2022-08-18T16:33:32;23.50;99.90
14283;DHT22;7225;59.282;18.344;2022-08-18T16:36:05;23.40;99.90
14283;DHT22;7225;59.282;18.344;2022-08-18T16:38:35;23.40;99.90
14283;DHT22;7225;59.282;18.344;2022-08-18T16:41:11;23.30;99.90
14283;DHT22;7225;59.282;18.344;2022-08-18T16:43:44;23.30;99.90
14283;DHT22;7225;59.282;18.344;2022-08-18T16:46:16;23.30;99.90
14283;DHT22;7225;59.282;18.344;2022-08-18T16:48:45;23.20;99.90
14283;DHT22;7225;59.282;18.344;2022-08-18T16:51:16;23.20;99.90
14283;DHT22;7225;59.282;18.344;2022-08-18T16:53:45;23.20;99.90
14283;DHT22;7225;59.282;18.344;2022-08-18T16:56:16;23.10;99.90
14283;DHT22;7225;59.282;18.344;2022-08-18T16:58:44;23.00;99.90
14283;DHT22;7225;59.282;18.344;2022-08-18T17:01:33;23.00;99.90
14283;DHT22;7225;59.282;18.344;2022-08-18T17:04:23;23.00;99.90
14283;DHT22;7225;59.282;18.344;2022-08-18T17:06:51;23.00;99.90
14283;DHT22;7225;59.282;18.344;2022-08-18T17:09:20;23.00;99.90
14283;DHT22;7225;59.282;18.344;2022-08-18T17:11:49;22.90;99.90
14283;DHT22;7225;59.282;18.344;2022-08-18T17:14:21;22.80;99.90
14283;DHT22;7225;59.282;18.344;2022-08-18T17:16:51;22.80;99.90
14283;DHT22;7225;59.282;18.344;2022-08-18T17:19:22;22.80;99.90
14283;DHT22;7225;59.282;18.344;2022-08-18T17:21:49;22.80;99.90
14283;DHT22;7225;59.282;18.344;2022-08-18T17:24:16;22.70;99.90
14283;DHT22;7225;59.282;18.344;2022-08-18T17:27:09;22.80;99.90
14283;DHT22;7225;59.282;18.344;2022-08-18T17:35:03;22.70;99.90
14283;DHT22;7225;59.282;18.344;2022-08-18T17:37:33;22.70;99.90
14283;DHT22;7225;59.282;18.344;2022-08-18T17:40:14;22.70;99.90
14283;DHT22;7225;59.282;18.344;2022-08-18T17:42:42;22.70;99.90
14283;DHT22;7225;59.282;18.344;2022-08-18T17:45:12;22.70;99.90
14283;DHT22;7225;59.282;18.344;2022-08-18T17:48:06;22.70;99.90
14283;DHT22;7225;59.282;18.344;2022-08-18T17:50:43;22.70;99.90
14283;DHT22;7225;59.282;18.344;2022-08-18T17:53:33;22.70;99.90
14283;DHT22;7225;59.282;18.344;2022-08-18T17:56:13;22.60;99.90
14283;DHT22;7225;59.282;18.344;2022-08-18T17:58:59;22.60;99.90
14283;DHT22;7225;59.282;18.344;2022-08-18T18:01:30;22.60;99.90
14283;DHT22;7225;59.282;18.344;2022-08-18T18:03:59;22.60;99.90
14283;DHT22;7225;59.282;18.344;2022-08-18T18:06:37;22.60;99.90
14283;DHT22;7225;59.282;18.344;2022-08-18T18:09:29;22.50;99.90
14283;DHT22;7225;59.282;18.344;2022-08-18T18:11:57;22.40;99.90
14283;DHT22;7225;59.282;18.344;2022-08-18T18:14:44;22.50;99.90
14283;DHT22;7225;59.282;18.344;2022-08-18T18:17:23;22.40;99.90
14283;DHT22;7225;59.282;18.344;2022-08-18T18:20:21;22.40;99.90
14283;DHT22;7225;59.282;18.344;2022-08-18T18:22:51;22.30;99.90
14283;DHT22;7225;59.282;18.344;2022-08-18T18:25:32;22.30;99.90
14283;DHT22;7225;59.282;18.344;2022-08-18T18:28:00;22.30;99.90
14283;DHT22;7225;59.282;18.344;2022-08-18T18:30:28;22.30;99.90
14283;DHT22;7225;59.282;18.344;2022-08-18T18:32:57;22.20;99.90
14283;DHT22;7225;59.282;18.344;2022-08-18T18:38:35;22.20;99.90
14283;DHT22;7225;59.282;18.344;2022-08-18T18:43:43;22.10;99.90
14283;DHT22;7225;59.282;18.344;2022-08-18T18:46:32;22.00;99.90